createdAt,value
2022-11-10T00:01:55.982Z,11.98
2022-11-10T00:04:47.315Z,11.98
2022-11-10T00:07:39.321Z,11.99
2022-11-10T00:10:31.228Z,12.04
2022-11-10T00:13:22.669Z,11.92
2022-11-10T00:16:31.097Z,11.96
2022-11-10T00:19:22.282Z,11.91
2022-11-10T00:22:13.166Z,11.89
2022-11-10T00:25:04.325Z,11.92
2022-11-10T00:27:55.843Z,11.96
2022-11-10T00:30:47.028Z,11.83
2022-11-10T00:33:39.530Z,11.98
2022-11-10T00:36:30.323Z,11.87
2022-11-10T00:39:21.267Z,11.92
2022-11-10T00:42:14.707Z,12.06
2022-11-10T00:45:05.616Z,12.03
2022-11-10T00:47:57.788Z,12.13
2022-11-10T00:50:49.960Z,12.12
2022-11-10T00:53:40.757Z,12.21
2022-11-10T00:56:31.572Z,12.23
2022-11-10T00:59:23.759Z,12.25
2022-11-10T01:02:14.857Z,12.11
2022-11-10T01:05:07.838Z,12.23
2022-11-10T01:08:00.717Z,12.23
2022-11-10T01:10:51.443Z,12.21
2022-11-10T01:13:44.436Z,12.20
2022-11-10T01:16:35.770Z,12.23
2022-11-10T01:19:26.742Z,12.20
2022-11-10T01:22:17.716Z,12.26
2022-11-10T01:25:13.051Z,12.35
2022-11-10T01:28:04.062Z,12.35
2022-11-10T01:31:01.478Z,12.39
2022-11-10T01:33:56.936Z,12.41
2022-11-10T01:36:48.157Z,12.35
2022-11-10T01:39:38.994Z,12.36
2022-11-10T01:42:52.607Z,12.34
2022-11-10T01:45:52.298Z,12.34
2022-11-10T01:48:49.586Z,12.21
2022-11-10T01:51:50.776Z,12.38
2022-11-10T01:54:47.209Z,12.33
2022-11-10T01:57:39.809Z,12.32
2022-11-10T02:00:31.280Z,12.19
2022-11-10T02:03:31.870Z,12.26
2022-11-10T02:06:28.568Z,12.31
2022-11-10T02:09:20.862Z,12.27
2022-11-10T02:12:12.352Z,12.31
2022-11-10T02:15:12.692Z,12.31
2022-11-10T02:18:03.414Z,12.29
2022-11-10T02:20:54.191Z,12.22
2022-11-10T02:23:55.310Z,12.25
2022-11-10T02:26:52.156Z,12.25
2022-11-10T02:29:45.178Z,12.14
2022-11-10T02:32:36.429Z,12.20
2022-11-10T02:35:27.390Z,12.24
2022-11-10T02:38:19.172Z,12.25
2022-11-10T02:41:10.860Z,12.26
2022-11-10T02:44:04.416Z,12.19
2022-11-10T02:46:54.973Z,12.21
2022-11-10T02:49:46.479Z,12.20
2022-11-10T02:52:40.826Z,12.21
2022-11-10T02:55:32.844Z,12.21
2022-11-10T02:58:23.417Z,12.11
2022-11-10T03:01:15.683Z,12.14
2022-11-10T03:04:10.907Z,11.94
2022-11-10T03:07:02.336Z,12.04
2022-11-10T03:09:54.855Z,12.05
2022-11-10T03:12:45.484Z,12.15
2022-11-10T03:15:36.697Z,12.18
2022-11-10T03:18:27.464Z,12.05
2022-11-10T03:21:19.209Z,12.09
2022-11-10T03:24:10.551Z,12.15
2022-11-10T03:27:02.592Z,12.11
2022-11-10T03:29:53.844Z,12.02
2022-11-10T03:32:48.227Z,12.03
2022-11-10T03:35:38.893Z,12.07
2022-11-10T03:38:30.696Z,12.10
2022-11-10T03:41:21.390Z,12.25
2022-11-10T03:44:12.439Z,12.16
2022-11-10T03:47:04.148Z,12.14
2022-11-10T03:49:55.341Z,12.21
2022-11-10T03:52:49.062Z,12.21
2022-11-10T03:55:39.924Z,12.14
2022-11-10T03:58:30.907Z,12.18
2022-11-10T04:01:24.207Z,12.16
2022-11-10T04:04:29.862Z,12.14
2022-11-10T04:07:44.620Z,12.16
2022-11-10T04:10:37.998Z,12.16
2022-11-10T04:13:46.855Z,12.07
2022-11-10T04:16:38.181Z,12.22
2022-11-10T04:19:29.971Z,12.16
2022-11-10T04:22:41.801Z,12.04
2022-11-10T04:25:54.138Z,12.05
2022-11-10T04:28:50.717Z,11.98
2022-11-10T04:31:45.232Z,12.02
2022-11-10T04:34:38.077Z,12.12
2022-11-10T04:37:29.125Z,12.10
2022-11-10T04:40:20.406Z,12.07
2022-11-10T04:43:12.166Z,12.07
2022-11-10T04:46:04.764Z,11.97
2022-11-10T04:48:57.334Z,11.93
2022-11-10T04:51:48.382Z,11.98
2022-11-10T04:54:39.672Z,11.89
2022-11-10T04:57:31.044Z,11.99
2022-11-10T05:00:24.330Z,11.90
2022-11-10T05:03:16.013Z,11.87
2022-11-10T05:06:08.023Z,11.95
2022-11-10T05:08:58.950Z,11.95
2022-11-10T05:11:50.189Z,12.02
2022-11-10T05:14:45.275Z,11.96
2022-11-10T05:17:39.059Z,11.93
2022-11-10T05:20:31.993Z,11.90
2022-11-10T05:23:39.375Z,11.89
2022-11-10T05:26:32.011Z,11.91
2022-11-10T05:29:22.798Z,11.93
2022-11-10T05:32:17.068Z,11.81
2022-11-10T05:35:14.059Z,11.93
2022-11-10T05:38:08.875Z,11.90
2022-11-10T05:41:00.540Z,11.91
2022-11-10T05:43:55.632Z,12.04
2022-11-10T05:46:49.852Z,11.86
2022-11-10T05:49:42.067Z,11.82
2022-11-10T05:52:33.258Z,11.87
2022-11-10T05:55:29.004Z,11.93
2022-11-10T06:08:45.498Z,12.03
2022-11-10T06:11:37.178Z,12.02
2022-11-10T06:14:29.829Z,11.99
2022-11-10T06:17:22.091Z,11.92
2022-11-10T06:20:21.814Z,11.89
2022-11-10T06:23:17.448Z,11.86
2022-11-10T06:26:10.509Z,11.79
2022-11-10T06:29:01.837Z,11.81
2022-11-10T06:31:53.546Z,11.82
2022-11-10T06:34:47.054Z,11.77
2022-11-10T06:37:40.216Z,11.70
2022-11-10T06:40:33.739Z,11.54
2022-11-10T06:43:25.199Z,11.58
2022-11-10T06:46:18.270Z,11.62
2022-11-10T06:49:11.139Z,11.67
2022-11-10T06:52:03.045Z,11.64
2022-11-10T06:54:53.918Z,11.67
2022-11-10T06:57:48.934Z,11.71
2022-11-10T07:00:40.440Z,11.61
2022-11-10T07:03:31.525Z,11.57
2022-11-10T07:06:23.241Z,11.61
2022-11-10T07:09:14.514Z,11.58
2022-11-10T07:12:06.420Z,11.67
2022-11-10T07:14:57.483Z,11.70
2022-11-10T07:17:48.632Z,11.68
2022-11-10T07:20:39.845Z,11.74
2022-11-10T07:23:30.760Z,11.73
2022-11-10T07:26:22.671Z,11.68
2022-11-10T07:29:13.472Z,11.81
2022-11-10T07:47:35.060Z,12.30
2022-11-10T07:50:27.500Z,12.26
2022-11-10T07:53:21.232Z,12.32
2022-11-10T07:56:14.445Z,12.29
2022-11-10T07:59:05.168Z,12.35
2022-11-10T08:01:56.529Z,12.45
2022-11-10T08:04:47.363Z,12.39
2022-11-10T08:07:38.774Z,12.47
2022-11-10T08:10:30.862Z,12.55
2022-11-10T08:13:23.056Z,12.57
2022-11-10T08:16:14.348Z,12.59
2022-11-10T08:19:05.933Z,12.58
2022-11-10T08:21:56.777Z,12.56
2022-11-10T08:24:48.317Z,12.50
2022-11-10T08:27:39.660Z,12.60
2022-11-10T08:30:31.370Z,12.61
2022-11-10T08:33:24.168Z,12.71
2022-11-10T08:36:15.419Z,12.71
2022-11-10T08:39:06.697Z,12.75
2022-11-10T08:41:58.016Z,12.89
2022-11-10T08:44:49.168Z,12.91
2022-11-10T08:47:39.856Z,12.96
2022-11-10T08:50:31.543Z,13.00
2022-11-10T08:53:26.476Z,13.17
2022-11-10T08:56:18.005Z,13.08
2022-11-10T08:59:10.041Z,12.93
2022-11-10T09:02:00.219Z,13.07
2022-11-10T09:04:50.724Z,13.10
2022-11-10T09:07:49.410Z,13.24
2022-11-10T09:10:40.896Z,13.38
2022-11-10T09:13:31.142Z,13.42
2022-11-10T09:16:22.152Z,13.55
2022-11-10T09:19:18.460Z,13.62
2022-11-10T09:22:14.343Z,13.69
2022-11-10T09:25:04.029Z,13.60
2022-11-10T09:27:53.335Z,13.60
2022-11-10T09:30:42.716Z,13.67
2022-11-10T09:33:32.102Z,13.70
2022-11-10T09:36:21.512Z,13.66
2022-11-10T09:39:11.171Z,13.75
2022-11-10T09:42:00.904Z,13.84
2022-11-10T09:45:00.167Z,13.85
2022-11-10T09:47:58.263Z,13.80
2022-11-10T09:50:50.346Z,13.89
2022-11-10T09:53:42.776Z,13.92
2022-11-10T09:56:35.287Z,13.88
2022-11-10T09:59:29.934Z,13.94
2022-11-10T10:02:24.804Z,13.94
2022-11-10T10:05:37.759Z,13.81
2022-11-10T10:08:33.800Z,13.82
2022-11-10T10:11:30.306Z,13.76
2022-11-10T10:14:26.063Z,13.82
2022-11-10T10:17:26.193Z,13.74
2022-11-10T10:20:21.073Z,13.84
2022-11-10T10:23:15.798Z,13.95
2022-11-10T10:26:07.051Z,14.00
2022-11-10T10:28:58.199Z,14.07
2022-11-10T10:31:49.987Z,14.00
2022-11-10T10:34:40.430Z,13.88
2022-11-10T10:37:36.843Z,13.94
2022-11-10T10:40:26.754Z,13.96
2022-11-10T10:43:17.552Z,13.91
2022-11-10T10:46:09.073Z,13.90
2022-11-10T10:49:27.867Z,13.89
2022-11-10T10:52:24.997Z,13.77
2022-11-10T10:55:15.152Z,13.77
2022-11-10T10:58:06.625Z,13.92
2022-11-10T11:00:59.289Z,14.06
2022-11-10T11:03:50.235Z,14.17
2022-11-10T11:06:39.466Z,14.08
2022-11-10T11:09:30.289Z,14.02
2022-11-10T11:12:32.845Z,13.97
2022-11-10T11:15:28.835Z,14.10
2022-11-10T11:18:22.854Z,14.12
2022-11-10T11:21:25.113Z,14.08
2022-11-10T11:24:23.196Z,14.17
2022-11-10T11:27:19.540Z,14.34
2022-11-10T11:30:15.256Z,14.46
2022-11-10T11:33:19.255Z,14.56
2022-11-10T11:36:16.758Z,14.77
2022-11-10T11:39:16.345Z,14.56
2022-11-10T11:42:12.085Z,14.48
2022-11-10T11:45:08.588Z,14.53
2022-11-10T11:48:06.615Z,14.46
2022-11-10T11:50:59.245Z,14.44
2022-11-10T11:53:54.852Z,14.34
2022-11-10T11:56:46.055Z,14.39
2022-11-10T11:59:44.395Z,14.46
2022-11-10T12:02:52.983Z,14.59
2022-11-10T12:05:54.052Z,14.58
2022-11-10T12:08:48.310Z,14.52
2022-11-10T12:11:43.857Z,14.59
2022-11-10T12:14:40.240Z,14.56
2022-11-10T12:17:36.103Z,14.69
2022-11-10T12:20:31.556Z,14.77
2022-11-10T12:23:27.189Z,14.81
2022-11-10T12:26:23.278Z,14.64
2022-11-10T12:29:19.261Z,14.76
2022-11-10T12:32:14.831Z,14.82
2022-11-10T12:35:11.619Z,14.93
2022-11-10T12:38:05.790Z,15.03
2022-11-10T12:41:01.399Z,14.92
2022-11-10T12:43:59.366Z,15.00
2022-11-10T12:46:52.208Z,14.94
2022-11-10T12:49:51.811Z,14.98
2022-11-10T12:52:44.508Z,15.06
2022-11-10T12:55:37.516Z,15.01
2022-11-10T12:58:27.776Z,15.03
2022-11-10T13:01:19.760Z,15.22
2022-11-10T13:04:09.802Z,15.15
2022-11-10T13:07:00.475Z,15.19
2022-11-10T13:09:51.529Z,15.13
2022-11-10T13:12:58.895Z,15.11
2022-11-10T13:15:51.323Z,15.02
2022-11-10T13:19:01.021Z,15.02
2022-11-10T13:22:09.731Z,15.14
2022-11-10T13:25:12.829Z,15.18
2022-11-10T13:28:02.558Z,15.25
2022-11-10T13:30:53.583Z,15.06
2022-11-10T13:34:03.362Z,15.10
2022-11-10T13:36:53.058Z,15.18
2022-11-10T13:39:42.322Z,15.13
2022-11-10T13:42:32.045Z,15.09
2022-11-10T13:45:31.686Z,15.02
2022-11-10T13:48:27.503Z,14.96
2022-11-10T13:51:28.083Z,14.79
2022-11-10T13:54:34.633Z,14.83
2022-11-10T13:57:27.313Z,14.78
2022-11-10T14:00:31.379Z,14.72
2022-11-10T14:03:34.112Z,14.58
2022-11-10T14:06:25.567Z,14.45
2022-11-10T14:09:21.600Z,14.47
2022-11-10T14:12:26.368Z,14.38
2022-11-10T14:15:22.101Z,14.26
2022-11-10T14:18:19.759Z,14.25
2022-11-10T14:21:14.028Z,14.30
2022-11-10T14:24:09.031Z,14.36
2022-11-10T14:27:00.875Z,14.34
2022-11-10T14:29:50.342Z,14.35
2022-11-10T14:32:39.684Z,14.31
2022-11-10T14:35:30.893Z,14.22
2022-11-10T14:38:23.840Z,14.24
2022-11-10T14:41:20.344Z,14.21
2022-11-10T14:44:15.498Z,14.15
2022-11-10T14:47:25.207Z,14.09
2022-11-10T14:50:21.395Z,13.95
2022-11-10T14:53:15.706Z,13.98
2022-11-10T14:56:06.670Z,13.96
2022-11-10T14:59:00.161Z,13.94
2022-11-10T15:01:55.447Z,13.87
2022-11-10T15:04:46.441Z,13.84
2022-11-10T15:07:36.887Z,13.75
2022-11-10T15:10:28.013Z,13.72
2022-11-10T15:13:35.321Z,13.66
2022-11-10T15:16:27.305Z,13.65
2022-11-10T15:19:24.207Z,13.52
2022-11-10T15:22:19.633Z,13.59
2022-11-10T15:25:16.351Z,13.54
2022-11-10T15:28:07.591Z,13.49
2022-11-10T15:30:58.042Z,13.51
2022-11-10T15:33:48.254Z,13.47
2022-11-10T15:36:39.798Z,13.49
2022-11-10T15:39:30.376Z,13.46
2022-11-10T15:42:23.064Z,13.49
2022-11-10T15:45:12.592Z,13.40
2022-11-10T15:48:02.803Z,13.34
2022-11-10T15:50:54.119Z,13.39
2022-11-10T15:53:45.005Z,13.38
2022-11-10T15:56:34.114Z,13.37
2022-11-10T15:59:23.737Z,13.35
2022-11-10T16:02:23.834Z,13.31
2022-11-10T16:05:14.778Z,13.31
2022-11-10T16:08:05.460Z,13.31
2022-11-10T16:10:57.456Z,13.27
2022-11-10T16:13:47.491Z,13.19
2022-11-10T16:16:37.142Z,13.19
2022-11-10T16:19:27.922Z,13.25
2022-11-10T16:22:18.213Z,13.13
2022-11-10T16:25:18.877Z,13.08
2022-11-10T16:28:20.403Z,13.12
2022-11-10T16:31:12.347Z,13.14
2022-11-10T16:34:01.863Z,13.10
2022-11-10T16:36:51.496Z,13.00
2022-11-10T16:39:41.347Z,13.08
2022-11-10T16:42:31.889Z,13.10
2022-11-10T16:45:23.391Z,13.21
2022-11-10T16:48:24.500Z,13.08
2022-11-10T16:51:18.138Z,13.16
2022-11-10T16:54:12.136Z,13.20
2022-11-10T16:57:02.813Z,13.17
2022-11-10T16:59:52.609Z,13.15
2022-11-10T17:02:46.245Z,13.12
2022-11-10T17:05:42.354Z,13.12
2022-11-10T17:08:33.306Z,13.09
2022-11-10T17:11:24.760Z,12.97
2022-11-10T17:14:16.779Z,13.05
2022-11-10T17:17:06.768Z,13.01
2022-11-10T17:19:57.718Z,13.00
2022-11-10T17:22:51.457Z,13.00
2022-11-10T17:25:42.889Z,12.87
2022-11-10T17:28:35.254Z,12.96
2022-11-10T17:31:25.861Z,12.96
2022-11-10T17:34:16.377Z,12.92
2022-11-10T17:37:07.228Z,12.81
2022-11-10T17:39:58.076Z,12.93
2022-11-10T17:42:47.924Z,12.91
2022-11-10T17:45:40.836Z,12.99
2022-11-10T17:48:30.488Z,13.03
2022-11-10T17:51:22.487Z,12.91
2022-11-10T17:55:06.963Z,13.11
2022-11-10T17:57:58.247Z,13.11
2022-11-10T18:00:48.502Z,13.18
2022-11-10T18:03:39.055Z,13.23
2022-11-10T18:06:28.718Z,13.10
2022-11-10T18:09:18.323Z,13.17
2022-11-10T18:12:08.396Z,13.14
2022-11-10T18:14:58.256Z,13.17
2022-11-10T18:18:58.690Z,13.09
2022-11-10T18:26:03.932Z,13.21
2022-11-10T18:28:57.652Z,13.16
2022-11-10T18:31:50.051Z,13.05
2022-11-10T18:35:04.908Z,13.04
2022-11-10T18:37:56.182Z,13.04
2022-11-10T18:40:48.900Z,13.10
2022-11-10T18:43:39.873Z,12.98
2022-11-10T18:46:32.696Z,13.12
2022-11-10T18:49:24.018Z,13.12
2022-11-10T18:52:16.252Z,13.02
2022-11-10T18:55:09.420Z,13.07
2022-11-10T18:58:00.184Z,13.01
2022-11-10T19:00:52.280Z,13.02
2022-11-10T19:03:44.203Z,12.99
2022-11-10T19:06:35.891Z,12.93
2022-11-10T19:09:27.155Z,12.86
2022-11-10T19:12:21.455Z,12.91
2022-11-10T19:15:19.581Z,12.95
2022-11-10T19:18:10.820Z,12.91
2022-11-10T19:21:07.525Z,12.82
2022-11-10T19:23:58.999Z,12.67
2022-11-10T19:26:53.272Z,12.67
2022-11-10T19:29:47.004Z,12.66
2022-11-10T19:32:39.311Z,12.81
2022-11-10T19:35:32.472Z,12.73
2022-11-10T19:38:25.285Z,12.69
2022-11-10T19:41:23.094Z,12.82
2022-11-10T19:44:16.619Z,12.86
2022-11-10T19:47:08.203Z,12.81
2022-11-10T19:50:03.227Z,12.74
2022-11-10T19:53:18.631Z,12.60
2022-11-10T19:56:15.130Z,12.60
2022-11-10T19:59:08.679Z,12.50
2022-11-10T20:02:00.942Z,12.61
2022-11-10T20:05:08.887Z,12.50
2022-11-10T20:08:13.162Z,12.51
2022-11-10T20:11:05.859Z,12.54
2022-11-10T20:13:59.564Z,12.59
2022-11-10T20:16:53.614Z,12.60
2022-11-10T20:19:46.882Z,12.58
2022-11-10T20:22:39.040Z,12.56
2022-11-10T20:25:29.763Z,12.61
2022-11-10T20:28:21.379Z,12.51
2022-11-10T20:31:12.325Z,12.28
2022-11-10T20:34:02.180Z,12.45
2022-11-10T20:36:52.596Z,12.31
2022-11-10T20:39:43.743Z,12.32
2022-11-10T20:42:37.794Z,12.44
2022-11-10T20:45:32.138Z,12.50
2022-11-10T20:48:22.398Z,12.53
2022-11-10T20:51:19.588Z,12.53
2022-11-10T20:54:12.570Z,12.59
2022-11-10T20:57:07.285Z,12.53
2022-11-10T21:00:04.376Z,12.41
2022-11-10T21:02:55.814Z,12.57
2022-11-10T21:05:45.564Z,12.44
2022-11-10T21:09:00.055Z,12.43
2022-11-10T21:12:08.209Z,12.46
2022-11-10T21:14:58.536Z,12.40
2022-11-10T21:17:48.582Z,12.30
2022-11-10T21:20:37.779Z,12.39
2022-11-10T21:23:28.513Z,12.28
2022-11-10T21:26:20.447Z,12.29
2022-11-10T21:29:13.011Z,12.30
2022-11-10T21:32:03.214Z,12.07
2022-11-10T21:34:52.867Z,12.20
2022-11-10T21:37:46.755Z,12.00
2022-11-10T21:40:37.963Z,12.10
2022-11-10T21:43:28.792Z,12.23
2022-11-10T21:46:19.615Z,12.22
2022-11-10T21:49:09.479Z,12.21
2022-11-10T21:51:59.947Z,12.12
2022-11-10T21:54:50.031Z,12.15
2022-11-10T21:57:41.452Z,12.20
2022-11-10T22:00:33.300Z,12.29
2022-11-10T22:03:23.331Z,12.16
2022-11-10T22:06:19.694Z,12.15
2022-11-10T22:09:09.946Z,12.07
2022-11-10T22:12:20.553Z,12.19
2022-11-10T22:15:40.609Z,12.17
2022-11-10T22:18:41.354Z,12.14
2022-11-10T22:21:32.321Z,12.10
2022-11-10T22:24:24.373Z,12.00
2022-11-10T22:27:19.676Z,12.04
2022-11-10T22:30:16.708Z,12.12
2022-11-10T22:33:34.794Z,12.12
2022-11-10T22:37:03.825Z,12.21
2022-11-10T22:40:12.070Z,12.20
2022-11-10T22:43:21.191Z,12.23
2022-11-10T22:46:11.594Z,12.24
2022-11-10T22:49:25.485Z,12.21
2022-11-10T22:52:18.083Z,12.17
2022-11-10T22:55:12.590Z,12.17
2022-11-10T22:58:03.190Z,12.26
2022-11-10T23:00:56.852Z,12.28
2022-11-10T23:03:50.874Z,12.31
2022-11-10T23:07:29.860Z,12.32
2022-11-10T23:10:23.163Z,12.36
2022-11-10T23:13:15.263Z,12.32
2022-11-10T23:16:07.345Z,12.38
2022-11-10T23:18:58.122Z,12.41
2022-11-10T23:22:11.871Z,12.46
2022-11-10T23:25:26.185Z,12.40
2022-11-10T23:28:16.912Z,12.49
2022-11-10T23:31:08.850Z,12.48
2022-11-10T23:33:58.114Z,12.51
2022-11-10T23:36:47.008Z,12.44
2022-11-10T23:39:36.674Z,12.43
2022-11-10T23:42:27.756Z,12.52
2022-11-10T23:45:18.575Z,12.38
2022-11-10T23:48:08.320Z,12.57
2022-11-10T23:50:58.831Z,12.60
2022-11-10T23:53:48.048Z,12.70
2022-11-10T23:56:37.124Z,12.72
2022-11-10T23:59:26.524Z,12.59
